createdAt,value
2022-11-20T00:01:28.418Z,-3.42
2022-11-20T00:03:56.248Z,-3.43
2022-11-20T00:06:23.672Z,-3.44
2022-11-20T00:08:50.825Z,-3.44
2022-11-20T00:11:22.852Z,-3.46
2022-11-20T00:13:52.193Z,-3.48
2022-11-20T00:16:21.878Z,-3.49
2022-11-20T00:18:48.660Z,-3.51
2022-11-20T00:21:17.706Z,-3.53
2022-11-20T00:23:44.812Z,-3.55
2022-11-20T00:26:14.147Z,-3.56
2022-11-20T00:28:41.375Z,-3.55
2022-11-20T00:31:13.894Z,-3.58
2022-11-20T00:33:40.682Z,-3.59
2022-11-20T00:36:09.845Z,-3.60
2022-11-20T00:38:36.651Z,-3.61
2022-11-20T00:41:06.222Z,-3.62
2022-11-20T00:43:33.132Z,-3.61
2022-11-20T00:46:00.384Z,-3.60
2022-11-20T00:48:27.457Z,-3.59
2022-11-20T00:50:54.568Z,-3.62
2022-11-20T00:53:21.850Z,-3.65
2022-11-20T00:56:01.725Z,-3.66
2022-11-20T00:58:34.061Z,-3.67
2022-11-20T01:01:08.466Z,-3.68
2022-11-20T01:03:38.053Z,-3.66
2022-11-20T01:06:13.745Z,-3.67
2022-11-20T01:08:40.372Z,-3.69
2022-11-20T01:11:12.628Z,-3.74
2022-11-20T01:13:40.043Z,-3.75
2022-11-20T01:16:28.633Z,-3.78
2022-11-20T01:18:58.949Z,-3.81
2022-11-20T01:21:28.857Z,-3.84
2022-11-20T01:23:55.625Z,-3.84
2022-11-20T01:26:25.325Z,-3.85
2022-11-20T01:28:52.524Z,-3.86
2022-11-20T01:31:23.990Z,-3.88
2022-11-20T01:33:53.023Z,-3.91
2022-11-20T01:36:22.081Z,-3.94
2022-11-20T01:38:48.615Z,-3.94
2022-11-20T01:41:34.871Z,-3.95
2022-11-20T01:44:01.777Z,-3.97
2022-11-20T01:46:28.477Z,-3.98
2022-11-20T01:49:02.104Z,-4.00
2022-11-20T01:51:42.645Z,-4.00
2022-11-20T01:54:25.653Z,-4.03
2022-11-20T01:56:57.596Z,-4.04
2022-11-20T01:59:26.984Z,-4.05
2022-11-20T02:01:54.215Z,-4.07
2022-11-20T02:04:21.698Z,-4.08
2022-11-20T02:06:59.786Z,-4.12
2022-11-20T02:09:26.534Z,-4.13
2022-11-20T02:11:53.807Z,-4.12
2022-11-20T02:14:21.744Z,-4.14
2022-11-20T02:16:49.821Z,-4.15
2022-11-20T02:19:24.385Z,-4.18
2022-11-20T02:22:18.542Z,-4.20
2022-11-20T02:24:47.275Z,-4.24
2022-11-20T02:27:16.202Z,-4.24
2022-11-20T02:29:49.300Z,-4.28
2022-11-20T02:32:20.186Z,-4.31
2022-11-20T02:34:46.624Z,-4.31
2022-11-20T02:37:13.678Z,-4.29
2022-11-20T02:39:41.420Z,-4.31
2022-11-20T02:42:07.931Z,-4.32
2022-11-20T02:44:34.350Z,-4.33
2022-11-20T02:47:00.901Z,-4.35
2022-11-20T02:49:27.357Z,-4.34
2022-11-20T02:51:53.944Z,-4.36
2022-11-20T02:54:20.315Z,-4.36
2022-11-20T02:56:46.733Z,-4.37
2022-11-20T02:59:13.130Z,-4.38
2022-11-20T03:01:39.926Z,-4.39
2022-11-20T03:04:06.433Z,-4.41
2022-11-20T03:06:33.431Z,-4.42
2022-11-20T03:08:59.921Z,-4.44
2022-11-20T03:11:26.380Z,-4.44
2022-11-20T03:13:52.875Z,-4.47
2022-11-20T03:16:21.965Z,-4.49
2022-11-20T03:18:48.949Z,-4.52
2022-11-20T03:21:16.249Z,-4.52
2022-11-20T03:23:42.716Z,-4.55
2022-11-20T03:26:12.239Z,-4.54
2022-11-20T03:28:38.979Z,-4.57
2022-11-20T03:31:13.170Z,-4.59
2022-11-20T03:33:41.584Z,-4.60
2022-11-20T03:36:10.674Z,-4.62
2022-11-20T03:38:37.852Z,-4.63
2022-11-20T03:41:07.243Z,-4.62
2022-11-20T03:43:33.888Z,-4.65
2022-11-20T03:46:00.901Z,-4.66
2022-11-20T03:48:28.134Z,-4.66
2022-11-20T03:51:07.847Z,-4.68
2022-11-20T03:53:34.389Z,-4.67
2022-11-20T03:56:00.826Z,-4.67
2022-11-20T03:58:27.221Z,-4.69
2022-11-20T04:00:53.660Z,-4.70
2022-11-20T04:03:20.063Z,-4.72
2022-11-20T04:05:46.553Z,-4.76
2022-11-20T04:08:12.979Z,-4.77
2022-11-20T04:10:39.392Z,-4.79
2022-11-20T04:13:05.827Z,-4.80
2022-11-20T04:15:38.125Z,-4.80
2022-11-20T04:18:04.934Z,-4.81
2022-11-20T04:20:31.365Z,-4.82
2022-11-20T04:22:57.766Z,-4.84
2022-11-20T04:25:24.274Z,-4.83
2022-11-20T04:27:50.686Z,-4.85
2022-11-20T04:30:17.246Z,-4.87
2022-11-20T04:32:43.717Z,-4.89
2022-11-20T04:35:10.132Z,-4.90
2022-11-20T04:37:36.530Z,-4.91
2022-11-20T04:40:03.102Z,-4.93
2022-11-20T04:42:29.499Z,-4.92
2022-11-20T04:44:56.329Z,-4.92
2022-11-20T04:47:22.829Z,-4.91
2022-11-20T04:49:49.280Z,-4.92
2022-11-20T04:52:15.751Z,-4.92
2022-11-20T04:54:42.138Z,-4.94
2022-11-20T04:57:13.082Z,-4.97
2022-11-20T04:59:40.834Z,-4.98
2022-11-20T05:02:07.388Z,-4.99
2022-11-20T05:04:33.854Z,-4.99
2022-11-20T05:07:00.269Z,-5.04
2022-11-20T05:09:26.754Z,-5.06
2022-11-20T05:11:53.148Z,-5.05
2022-11-20T05:14:19.664Z,-5.04
2022-11-20T05:16:46.372Z,-5.07
2022-11-20T05:19:13.031Z,-5.07
2022-11-20T05:21:39.467Z,-5.10
2022-11-20T05:24:06.825Z,-5.10
2022-11-20T05:26:33.659Z,-5.14
2022-11-20T05:29:00.051Z,-5.14
2022-11-20T05:31:28.437Z,-5.12
2022-11-20T05:33:57.026Z,-5.14
2022-11-20T05:36:24.196Z,-5.16
2022-11-20T05:38:51.334Z,-5.18
2022-11-20T05:41:19.961Z,-5.18
2022-11-20T05:43:47.539Z,-5.19
2022-11-20T05:46:16.142Z,-5.19
2022-11-20T05:48:43.936Z,-5.20
2022-11-20T05:51:12.158Z,-5.19
2022-11-20T05:53:41.309Z,-5.23
2022-11-20T05:56:12.378Z,-5.24
2022-11-20T05:58:39.108Z,-5.27
2022-11-20T06:01:16.089Z,-5.28
2022-11-20T06:03:44.634Z,-5.29
2022-11-20T06:06:11.061Z,-5.30
2022-11-20T06:08:37.497Z,-5.31
2022-11-20T06:11:06.085Z,-5.33
2022-11-20T06:13:32.859Z,-5.34
2022-11-20T06:15:59.498Z,-5.35
2022-11-20T06:18:28.121Z,-5.39
2022-11-20T06:21:12.937Z,-5.43
2022-11-20T06:23:39.438Z,-5.42
2022-11-20T06:26:08.844Z,-5.41
2022-11-20T06:28:35.561Z,-5.42
2022-11-20T06:31:02.352Z,-5.41
2022-11-20T06:33:29.196Z,-5.39
2022-11-20T06:36:02.644Z,-5.41
2022-11-20T06:38:32.618Z,-5.42
2022-11-20T06:40:59.069Z,-5.43
2022-11-20T06:43:26.514Z,-5.40
2022-11-20T06:45:57.478Z,-5.40
2022-11-20T06:48:26.199Z,-5.42
2022-11-20T06:50:52.642Z,-5.40
2022-11-20T06:53:19.241Z,-5.41
2022-11-20T06:55:47.194Z,-5.38
2022-11-20T06:58:15.146Z,-5.38
2022-11-20T07:00:42.113Z,-5.36
2022-11-20T07:03:11.289Z,-5.35
2022-11-20T07:05:38.322Z,-5.33
2022-11-20T07:08:05.719Z,-5.33
2022-11-20T07:10:32.678Z,-5.31
2022-11-20T07:12:59.160Z,-5.30
2022-11-20T07:15:26.434Z,-5.29
2022-11-20T07:17:53.114Z,-5.27
2022-11-20T07:20:19.684Z,-5.27
2022-11-20T07:22:46.253Z,-5.27
2022-11-20T07:25:12.801Z,-5.26
2022-11-20T07:27:39.315Z,-5.24
2022-11-20T07:30:06.405Z,-5.22
2022-11-20T07:32:32.819Z,-5.22
2022-11-20T07:34:59.216Z,-5.19
2022-11-20T07:37:25.863Z,-5.15
2022-11-20T07:39:52.309Z,-5.11
2022-11-20T07:42:18.768Z,-5.07
2022-11-20T07:44:45.204Z,-5.02
2022-11-20T07:47:11.701Z,-4.98
2022-11-20T07:49:38.169Z,-4.96
2022-11-20T07:52:05.443Z,-4.94
2022-11-20T07:54:32.789Z,-4.88
2022-11-20T07:56:59.240Z,-4.83
2022-11-20T07:59:25.707Z,-4.76
2022-11-20T08:01:52.199Z,-4.74
2022-11-20T08:04:18.630Z,-4.70
2022-11-20T08:06:45.037Z,-4.68
2022-11-20T08:09:11.599Z,-4.63
2022-11-20T08:11:56.781Z,-4.57
2022-11-20T08:14:23.226Z,-4.53
2022-11-20T08:16:50.393Z,-4.46
2022-11-20T08:19:19.831Z,-4.41
2022-11-20T08:21:46.663Z,-4.34
2022-11-20T08:24:13.724Z,-4.24
2022-11-20T08:26:42.211Z,-4.18
2022-11-20T08:29:08.651Z,-4.15
2022-11-20T08:31:35.670Z,-4.11
2022-11-20T08:34:06.310Z,-4.08
2022-11-20T08:36:36.006Z,-4.02
2022-11-20T08:39:03.497Z,-3.97
2022-11-20T08:41:32.646Z,-3.90
2022-11-20T08:44:01.773Z,-3.85
2022-11-20T08:46:38.063Z,-3.79
2022-11-20T08:49:05.712Z,-3.74
2022-11-20T08:51:32.210Z,-3.70
2022-11-20T08:53:58.928Z,-3.64
2022-11-20T08:56:25.462Z,-3.59
2022-11-20T08:59:20.102Z,-3.52
2022-11-20T09:01:40.454Z,-3.46
2022-11-20T09:04:06.908Z,-3.41
2022-11-20T09:06:33.420Z,-3.35
2022-11-20T09:09:06.093Z,-3.30
2022-11-20T09:11:33.230Z,-3.26
2022-11-20T09:13:59.653Z,-3.21
2022-11-20T09:16:26.093Z,-3.14
2022-11-20T09:19:07.271Z,-3.09
2022-11-20T09:21:38.953Z,-3.05
2022-11-20T09:24:06.207Z,-2.99
2022-11-20T09:26:32.604Z,-2.97
2022-11-20T09:28:59.019Z,-2.91
2022-11-20T09:31:27.037Z,-2.83
2022-11-20T09:33:53.473Z,-2.76
2022-11-20T09:36:20.292Z,-2.70
2022-11-20T09:38:47.804Z,-2.65
2022-11-20T09:41:23.243Z,-2.56
2022-11-20T09:44:03.952Z,-2.47
2022-11-20T09:46:39.902Z,-2.41
2022-11-20T09:49:38.782Z,-2.36
2022-11-20T09:52:21.539Z,-2.28
2022-11-20T09:54:48.330Z,-2.19
2022-11-20T09:57:26.842Z,-2.13
2022-11-20T10:00:00.320Z,-2.05
2022-11-20T10:02:30.276Z,-2.01
2022-11-20T10:04:56.697Z,-1.96
2022-11-20T10:07:32.770Z,-1.93
2022-11-20T10:10:00.258Z,-1.86
2022-11-20T10:12:37.045Z,-1.82
2022-11-20T10:15:23.568Z,-1.75
2022-11-20T10:18:09.054Z,-1.70
2022-11-20T10:20:47.240Z,-1.64
2022-11-20T10:23:29.203Z,-1.57
2022-11-20T10:26:41.317Z,-1.47
2022-11-20T10:29:16.770Z,-1.40
2022-11-20T10:31:52.073Z,-1.33
2022-11-20T10:34:57.063Z,-1.28
2022-11-20T10:37:28.704Z,-1.23
2022-11-20T10:40:04.910Z,-1.21
2022-11-20T10:42:38.687Z,-1.17
2022-11-20T10:45:25.365Z,-1.15
2022-11-20T10:47:55.273Z,-1.11
2022-11-20T10:50:23.845Z,-1.06
2022-11-20T10:53:00.237Z,-1.02
2022-11-20T10:55:33.979Z,-0.94
2022-11-20T10:58:53.729Z,-0.90
2022-11-20T11:01:24.813Z,-0.86
2022-11-20T11:03:56.342Z,-0.80
2022-11-20T11:06:41.577Z,-0.71
2022-11-20T11:09:18.298Z,-0.65
2022-11-20T11:11:44.746Z,-0.60
2022-11-20T11:14:16.297Z,-0.55
2022-11-20T11:16:54.589Z,-0.49
2022-11-20T11:19:22.074Z,-0.48
2022-11-20T11:21:55.561Z,-0.46
2022-11-20T11:24:45.982Z,-0.43
2022-11-20T11:27:17.259Z,-0.39
2022-11-20T11:29:44.900Z,-0.34
2022-11-20T11:32:15.431Z,-0.30
2022-11-20T11:34:42.278Z,-0.26
2022-11-20T11:37:20.494Z,-0.22
2022-11-20T11:39:55.082Z,-0.18
2022-11-20T11:42:31.295Z,-0.15
2022-11-20T11:45:07.133Z,-0.14
2022-11-20T11:47:38.542Z,-0.11
2022-11-20T11:50:10.972Z,-0.07
2022-11-20T11:52:39.277Z,-0.03
2022-11-20T11:55:11.490Z,0.00
2022-11-20T11:57:38.467Z,0.02
2022-11-20T12:00:15.331Z,0.06
2022-11-20T12:02:50.995Z,0.09
2022-11-20T12:05:31.746Z,0.11
2022-11-20T12:08:14.364Z,0.16
2022-11-20T12:11:12.526Z,0.23
2022-11-20T12:13:55.287Z,0.28
2022-11-20T12:16:22.081Z,0.32
2022-11-20T12:18:53.622Z,0.38
2022-11-20T12:21:47.889Z,0.43
2022-11-20T12:24:48.568Z,0.48
2022-11-20T12:27:14.998Z,0.52
2022-11-20T12:29:57.968Z,0.59
2022-11-20T12:32:48.659Z,0.63
2022-11-20T12:35:37.245Z,0.63
2022-11-20T12:38:30.411Z,0.64
2022-11-20T12:41:41.295Z,0.65
2022-11-20T12:44:50.524Z,0.66
2022-11-20T12:47:44.033Z,0.68
2022-11-20T12:51:00.205Z,0.70
2022-11-20T12:53:31.072Z,0.70
2022-11-20T12:56:20.616Z,0.72
2022-11-20T12:59:05.769Z,0.74
2022-11-20T13:01:41.231Z,0.76
2022-11-20T13:04:17.995Z,0.80
2022-11-20T13:06:45.199Z,0.81
2022-11-20T13:09:20.333Z,0.84
2022-11-20T13:11:53.663Z,0.89
2022-11-20T13:14:34.960Z,0.92
2022-11-20T13:17:31.846Z,0.93
2022-11-20T13:20:02.204Z,0.96
2022-11-20T13:22:49.952Z,0.97
2022-11-20T13:25:30.866Z,1.00
2022-11-20T13:28:04.704Z,1.03
2022-11-20T13:30:32.250Z,1.04
2022-11-20T13:33:07.655Z,1.04
2022-11-20T13:35:42.455Z,1.06
2022-11-20T13:38:14.558Z,1.07
2022-11-20T13:40:58.889Z,1.07
2022-11-20T13:43:44.108Z,1.08
2022-11-20T13:46:11.133Z,1.10
2022-11-20T13:48:43.512Z,1.08
2022-11-20T13:51:18.802Z,1.10
2022-11-20T13:54:23.066Z,1.10
2022-11-20T13:57:26.463Z,1.11
2022-11-20T14:00:11.610Z,1.12
2022-11-20T14:02:38.886Z,1.11
2022-11-20T14:05:06.242Z,1.14
2022-11-20T14:07:38.616Z,1.14
2022-11-20T14:10:05.888Z,1.15
2022-11-20T14:12:34.897Z,1.14
2022-11-20T14:15:01.688Z,1.16
2022-11-20T14:17:36.580Z,1.16
2022-11-20T14:20:06.310Z,1.16
2022-11-20T14:22:33.072Z,1.17
2022-11-20T14:25:07.894Z,1.18
2022-11-20T14:27:37.381Z,1.20
2022-11-20T14:30:05.905Z,1.20
2022-11-20T14:32:32.904Z,1.21
2022-11-20T14:35:10.928Z,1.23
2022-11-20T14:37:39.773Z,1.25
2022-11-20T14:40:38.422Z,1.24
2022-11-20T14:43:24.409Z,1.24
2022-11-20T14:46:03.480Z,1.26
2022-11-20T14:48:40.460Z,1.27
2022-11-20T14:51:06.951Z,1.27
2022-11-20T14:53:33.512Z,1.27
2022-11-20T14:56:02.123Z,1.28
2022-11-20T14:58:31.273Z,1.28
2022-11-20T15:01:00.881Z,1.30
2022-11-20T15:03:41.779Z,1.29
2022-11-20T15:06:11.631Z,1.31
2022-11-20T15:08:38.440Z,1.32
2022-11-20T15:11:19.058Z,1.32
2022-11-20T15:13:45.628Z,1.33
2022-11-20T15:16:23.548Z,1.33
2022-11-20T15:18:50.218Z,1.33
2022-11-20T15:21:19.587Z,1.33
2022-11-20T15:23:46.140Z,1.34
2022-11-20T15:26:19.474Z,1.35
2022-11-20T15:28:48.783Z,1.35
2022-11-20T15:31:17.548Z,1.36
2022-11-20T15:33:44.059Z,1.35
2022-11-20T15:36:10.930Z,1.38
2022-11-20T15:38:37.882Z,1.37
2022-11-20T15:41:04.489Z,1.36
2022-11-20T15:43:30.952Z,1.37
2022-11-20T15:46:03.234Z,1.36
2022-11-20T15:48:35.149Z,1.38
2022-11-20T15:51:32.295Z,1.39
2022-11-20T15:53:59.125Z,1.39
2022-11-20T15:56:26.901Z,1.40
2022-11-20T15:58:53.977Z,1.42
2022-11-20T16:01:23.149Z,1.42
2022-11-20T16:03:50.005Z,1.45
2022-11-20T16:06:17.268Z,1.44
2022-11-20T16:08:43.764Z,1.46
2022-11-20T16:11:14.812Z,1.47
2022-11-20T16:14:00.640Z,1.47
2022-11-20T16:16:31.154Z,1.50
2022-11-20T16:18:58.502Z,1.51
2022-11-20T16:21:31.605Z,1.50
2022-11-20T16:24:05.810Z,1.52
2022-11-20T16:26:33.413Z,1.53
2022-11-20T16:29:01.026Z,1.55
2022-11-20T16:31:27.477Z,1.56
2022-11-20T16:33:56.190Z,1.56
2022-11-20T16:36:26.622Z,1.57
2022-11-20T16:38:57.133Z,1.59
2022-11-20T16:41:26.593Z,1.60
2022-11-20T16:43:56.977Z,1.61
2022-11-20T16:46:24.680Z,1.61
2022-11-20T16:48:56.992Z,1.63
2022-11-20T16:51:24.829Z,1.64
2022-11-20T16:53:51.399Z,1.65
2022-11-20T16:56:20.472Z,1.65
2022-11-20T16:58:48.731Z,1.66
2022-11-20T17:01:18.062Z,1.68
2022-11-20T17:03:46.244Z,1.68
2022-11-20T17:06:18.205Z,1.70
2022-11-20T17:08:45.621Z,1.69
2022-11-20T17:11:14.419Z,1.71
2022-11-20T17:13:41.015Z,1.72
2022-11-20T17:16:12.751Z,1.74
2022-11-20T17:18:40.200Z,1.75
2022-11-20T17:21:07.518Z,1.76
2022-11-20T17:23:40.627Z,1.77
2022-11-20T17:26:18.587Z,1.78
2022-11-20T17:28:46.624Z,1.80
2022-11-20T17:31:15.676Z,1.82
2022-11-20T17:33:44.019Z,1.84
2022-11-20T17:36:12.604Z,1.84
2022-11-20T17:38:39.089Z,1.84
2022-11-20T17:41:15.055Z,1.83
2022-11-20T17:43:42.851Z,1.85
2022-11-20T17:46:11.940Z,1.85
2022-11-20T17:48:42.294Z,1.85
2022-11-20T17:51:13.896Z,1.86
2022-11-20T17:53:43.928Z,1.86
2022-11-20T17:56:30.036Z,1.87
2022-11-20T17:58:56.790Z,1.88
2022-11-20T18:01:24.016Z,1.88
2022-11-20T18:03:50.750Z,1.89
2022-11-20T18:06:22.985Z,1.90
2022-11-20T18:08:50.333Z,1.90
2022-11-20T18:11:20.645Z,1.92
2022-11-20T18:14:08.869Z,1.92
2022-11-20T18:16:38.278Z,1.91
2022-11-20T18:19:05.369Z,1.92
2022-11-20T18:21:32.264Z,1.92
2022-11-20T18:23:58.841Z,1.93
2022-11-20T18:26:26.448Z,1.93
2022-11-20T18:28:53.448Z,1.94
2022-11-20T18:31:20.781Z,1.95
2022-11-20T18:33:47.335Z,1.95
2022-11-20T18:36:20.942Z,1.96
2022-11-20T18:38:50.883Z,1.96
2022-11-20T18:41:43.070Z,1.96
2022-11-20T18:46:46.692Z,1.98
2022-11-20T18:49:13.611Z,1.97
2022-11-20T18:51:40.789Z,1.97
2022-11-20T18:54:07.581Z,1.98
2022-11-20T18:56:36.609Z,1.97
2022-11-20T18:59:04.477Z,1.98
2022-11-20T19:01:31.250Z,1.99
2022-11-20T19:03:58.234Z,1.99
2022-11-20T19:06:25.799Z,2.01
2022-11-20T19:08:53.279Z,2.02
2022-11-20T19:11:20.120Z,2.01
2022-11-20T19:13:46.797Z,2.01
2022-11-20T19:16:18.436Z,2.00
2022-11-20T19:18:45.422Z,2.02
2022-11-20T19:21:14.979Z,2.01
2022-11-20T19:23:41.710Z,2.01
2022-11-20T19:26:08.150Z,2.01
2022-11-20T19:28:36.289Z,2.00
2022-11-20T19:31:05.234Z,2.00
2022-11-20T19:33:32.188Z,2.00
2022-11-20T19:36:16.715Z,2.01
2022-11-20T19:38:47.974Z,2.01
2022-11-20T19:41:15.676Z,2.01
2022-11-20T19:43:42.141Z,2.00
2022-11-20T19:46:08.637Z,2.00
2022-11-20T19:48:37.548Z,2.00
2022-11-20T19:51:11.156Z,2.00
2022-11-20T19:53:38.173Z,2.00
2022-11-20T19:56:05.602Z,2.00
2022-11-20T19:58:33.284Z,2.01
2022-11-20T20:01:17.671Z,2.02
2022-11-20T20:03:45.530Z,2.03
2022-11-20T20:06:14.819Z,2.03
2022-11-20T20:08:42.355Z,2.04
2022-11-20T20:11:19.920Z,2.04
2022-11-20T20:13:47.312Z,2.05
2022-11-20T20:16:16.389Z,2.07
2022-11-20T20:18:43.447Z,2.08
2022-11-20T20:21:12.523Z,2.06
2022-11-20T20:23:40.110Z,2.07
2022-11-20T20:26:07.877Z,2.07
2022-11-20T20:28:35.544Z,2.08
2022-11-20T20:31:10.867Z,2.07
2022-11-20T20:33:38.595Z,2.05
2022-11-20T20:36:06.810Z,2.07
2022-11-20T20:38:33.784Z,2.08
2022-11-20T20:41:00.673Z,2.09
2022-11-20T20:43:27.621Z,2.08
2022-11-20T20:45:55.307Z,2.11
2022-11-20T20:48:23.308Z,2.10
2022-11-20T20:50:57.866Z,2.10
2022-11-20T20:53:25.136Z,2.12
2022-11-20T20:55:59.626Z,2.12
2022-11-20T20:58:27.939Z,2.12
2022-11-20T21:00:54.883Z,2.11
2022-11-20T21:03:21.726Z,2.12
2022-11-20T21:05:55.994Z,2.12
2022-11-20T21:08:22.711Z,2.13
2022-11-20T21:10:50.117Z,2.12
2022-11-20T21:13:16.554Z,2.13
2022-11-20T21:15:43.408Z,2.15
2022-11-20T21:18:09.792Z,2.16
2022-11-20T21:20:58.405Z,2.17
2022-11-20T21:23:24.795Z,2.16
2022-11-20T21:25:51.214Z,2.17
2022-11-20T21:28:18.508Z,2.16
2022-11-20T21:30:45.124Z,2.16
2022-11-20T21:33:11.642Z,2.17
2022-11-20T21:35:38.398Z,2.18
2022-11-20T21:38:05.039Z,2.19
2022-11-20T21:40:31.436Z,2.19
2022-11-20T21:42:57.910Z,2.21
2022-11-20T21:45:24.512Z,2.21
2022-11-20T21:47:51.967Z,2.22
2022-11-20T21:50:18.996Z,2.22
2022-11-20T21:52:45.473Z,2.21
2022-11-20T21:55:11.971Z,2.22
2022-11-20T21:57:38.417Z,2.23
2022-11-20T22:00:05.528Z,2.23
2022-11-20T22:02:32.046Z,2.22
2022-11-20T22:04:58.492Z,2.22
2022-11-20T22:07:24.939Z,2.22
2022-11-20T22:09:51.409Z,2.22
2022-11-20T22:12:17.801Z,2.22
2022-11-20T22:14:45.835Z,2.23
2022-11-20T22:17:14.411Z,2.23
2022-11-20T22:19:40.831Z,2.22
2022-11-20T22:22:07.269Z,2.22
2022-11-20T22:24:33.693Z,2.22
2022-11-20T22:27:00.194Z,2.22
2022-11-20T22:29:26.615Z,2.21
2022-11-20T22:31:53.194Z,2.21
2022-11-20T22:34:19.788Z,2.22
2022-11-20T22:36:46.273Z,2.21
2022-11-20T22:39:13.232Z,2.20
2022-11-20T22:41:39.742Z,2.20
2022-11-20T22:44:07.803Z,2.19
2022-11-20T22:46:36.384Z,2.18
2022-11-20T22:49:05.377Z,2.18
2022-11-20T22:51:34.532Z,2.18
2022-11-20T22:54:03.376Z,2.20
2022-11-20T22:56:30.578Z,2.19
2022-11-20T22:58:57.022Z,2.20
2022-11-20T23:01:28.899Z,2.18
2022-11-20T23:04:00.693Z,2.19
2022-11-20T23:06:28.191Z,2.20
2022-11-20T23:08:54.778Z,2.19
2022-11-20T23:11:24.070Z,2.19
2022-11-20T23:13:56.435Z,2.20
2022-11-20T23:16:24.281Z,2.21
2022-11-20T23:19:01.780Z,2.23
2022-11-20T23:21:28.479Z,2.23
2022-11-20T23:23:57.331Z,2.22
2022-11-20T23:26:26.815Z,2.20
2022-11-20T23:28:54.374Z,2.19
2022-11-20T23:31:21.218Z,2.18
2022-11-20T23:33:47.667Z,2.18
2022-11-20T23:36:14.746Z,2.18
2022-11-20T23:38:41.252Z,2.18
2022-11-20T23:41:08.029Z,2.18
2022-11-20T23:43:34.522Z,2.17
2022-11-20T23:46:01.967Z,2.16
2022-11-20T23:48:30.570Z,2.16
2022-11-20T23:50:57.012Z,2.17
2022-11-20T23:53:24.314Z,2.14
2022-11-20T23:55:53.187Z,2.12
2022-11-20T23:58:21.238Z,2.11
